Vinton, Ohio
Current Conditions -  °F | °C
As of 8:15 AM on Thursday 23 Oct 2014 (Local Time) from K3I2 Reporting Station
Overcast Overcast  
Wind Chill: 46°   Ceiling: 3900
Heat Index: 46°   Visibility: 10mi
Dew Point: 43°   Wind: 0mph
Humidity: 87%   Direction: NA
Pressure: 30.23"   Gusts: NA
Location:  38.98°N, 82.34°W
Report Text: K3I2 231215Z AUTO 00000KT 10SM OVC039 08/06 A3023 RMK AO2
Loading
Personal Weather Stations






























Interactive Weather Map
Tropical Storm Tracking
New forecast layout! Learn more

10-Day Weather Forecast

Advertisements
Track Severe Weather on mobile